createdAt,value
2019-03-27T00:00:12.936Z,10.20
2019-03-27T00:02:41.898Z,10.30
2019-03-27T00:05:11.021Z,10.30
2019-03-27T00:07:40.024Z,10.30
2019-03-27T00:10:09.447Z,10.00
2019-03-27T00:12:38.791Z,10.20
2019-03-27T00:15:13.282Z,10.10
2019-03-27T00:17:40.603Z,10.10
2019-03-27T00:20:10.553Z,10.10
2019-03-27T00:22:39.518Z,10.00
2019-03-27T00:25:10.152Z,9.80
2019-03-27T00:27:39.106Z,9.80
2019-03-27T00:30:11.802Z,9.90
2019-03-27T00:32:40.838Z,9.80
2019-03-27T00:35:10.368Z,9.90
2019-03-27T00:37:39.336Z,9.80
2019-03-27T00:40:09.252Z,9.90
2019-03-27T00:42:38.227Z,9.90
2019-03-27T00:45:08.458Z,10.00
2019-03-27T00:47:37.504Z,10.00
2019-03-27T00:50:08.422Z,9.90
2019-03-27T00:52:37.389Z,9.90
2019-03-27T00:55:08.117Z,9.60
2019-03-27T00:57:37.820Z,9.60
2019-03-27T01:00:15.459Z,9.70
2019-03-27T01:02:44.511Z,9.80
2019-03-27T01:05:13.572Z,9.90
2019-03-27T01:07:42.550Z,9.80
2019-03-27T01:10:11.767Z,9.90
2019-03-27T01:12:40.726Z,9.80
2019-03-27T01:15:10.370Z,9.80
2019-03-27T01:17:39.409Z,9.70
2019-03-27T01:20:08.645Z,9.70
2019-03-27T01:22:37.627Z,9.70
2019-03-27T01:25:07.067Z,9.60
2019-03-27T01:27:36.043Z,9.60
2019-03-27T01:30:06.256Z,9.50
2019-03-27T01:32:35.220Z,9.50
2019-03-27T01:35:04.442Z,9.40
2019-03-27T01:37:33.410Z,9.30
2019-03-27T01:40:02.411Z,9.30
2019-03-27T01:42:31.381Z,9.20
2019-03-27T01:45:00.367Z,9.20
2019-03-27T01:47:29.323Z,9.20
2019-03-27T01:49:58.371Z,9.10
2019-03-27T01:52:27.344Z,9.10
2019-03-27T01:54:56.314Z,9.10
2019-03-27T01:57:25.345Z,9.10
2019-03-27T01:59:54.334Z,9.00
2019-03-27T02:02:24.180Z,9.00
2019-03-27T02:04:53.150Z,9.00
2019-03-27T02:07:22.127Z,8.90
2019-03-27T02:09:51.107Z,8.70
2019-03-27T02:12:20.080Z,8.40
2019-03-27T02:14:49.062Z,8.60
2019-03-27T02:17:18.127Z,8.60
2019-03-27T02:19:47.098Z,8.40
2019-03-27T02:22:16.062Z,8.40
2019-03-27T02:24:45.039Z,8.40
2019-03-27T02:27:14.013Z,8.40
2019-03-27T02:29:42.999Z,8.40
2019-03-27T02:32:11.975Z,8.40
2019-03-27T02:34:40.962Z,8.40
2019-03-27T02:37:09.927Z,8.40
2019-03-27T02:39:38.922Z,8.30
2019-03-27T02:42:07.903Z,8.30
2019-03-27T02:44:37.089Z,8.20
2019-03-27T02:47:06.144Z,8.10
2019-03-27T02:49:35.104Z,8.10
2019-03-27T02:52:04.364Z,7.90
2019-03-27T02:54:33.322Z,7.90
2019-03-27T02:57:02.282Z,7.90
2019-03-27T02:59:31.488Z,7.80
2019-03-27T03:02:00.664Z,7.90
2019-03-27T03:04:29.818Z,7.80
2019-03-27T03:06:58.859Z,7.80
2019-03-27T03:09:27.853Z,7.80
2019-03-27T03:11:56.842Z,7.60
2019-03-27T03:14:25.892Z,7.60
2019-03-27T03:16:54.891Z,7.40
2019-03-27T03:19:23.859Z,7.30
2019-03-27T03:21:52.848Z,7.30
2019-03-27T03:24:21.820Z,7.20
2019-03-27T03:26:51.629Z,7.20
2019-03-27T03:29:20.744Z,7.20
2019-03-27T03:31:49.769Z,7.20
2019-03-27T03:34:18.736Z,7.20
2019-03-27T03:36:47.714Z,7.20
2019-03-27T03:39:16.680Z,7.10
2019-03-27T03:41:45.673Z,7.10
2019-03-27T03:44:14.710Z,7.20
2019-03-27T03:46:58.711Z,7.20
2019-03-27T03:49:14.365Z,7.20
2019-03-27T03:51:43.779Z,7.20
2019-03-27T03:54:13.682Z,7.20
2019-03-27T03:56:43.787Z,7.20
2019-03-27T03:59:13.421Z,7.20
2019-03-27T04:01:45.267Z,7.20
2019-03-27T04:04:14.563Z,7.20
2019-03-27T04:06:43.568Z,7.20
2019-03-27T04:09:12.614Z,7.30
2019-03-27T04:11:41.662Z,7.30
2019-03-27T04:14:10.639Z,7.30
2019-03-27T04:16:39.628Z,7.20
2019-03-27T04:19:08.674Z,7.20
2019-03-27T04:21:37.724Z,7.00
2019-03-27T04:24:06.693Z,7.20
2019-03-27T04:26:35.645Z,7.10
2019-03-27T04:29:04.784Z,7.10
2019-03-27T04:31:33.754Z,6.90
2019-03-27T04:34:02.721Z,6.90
2019-03-27T04:36:31.703Z,6.90
2019-03-27T04:39:00.678Z,6.90
2019-03-27T04:41:29.672Z,6.90
2019-03-27T04:43:58.639Z,7.00
2019-03-27T04:46:27.620Z,7.00
2019-03-27T04:48:56.581Z,7.00
2019-03-27T04:51:25.698Z,7.00
2019-03-27T04:53:54.664Z,7.00
2019-03-27T04:56:23.644Z,7.00
2019-03-27T04:58:52.611Z,7.00
2019-03-27T05:01:21.585Z,7.00
2019-03-27T05:03:50.922Z,6.90
2019-03-27T05:06:19.899Z,6.90
2019-03-27T05:08:48.869Z,7.00
2019-03-27T05:11:17.867Z,6.90
2019-03-27T05:13:46.840Z,6.90
2019-03-27T05:16:15.847Z,7.00
2019-03-27T05:18:44.818Z,6.70
2019-03-27T05:21:13.814Z,6.60
2019-03-27T05:23:42.875Z,6.70
2019-03-27T05:26:12.513Z,6.70
2019-03-27T05:28:41.494Z,6.70
2019-03-27T05:31:29.807Z,6.80
2019-03-27T05:33:58.775Z,6.90
2019-03-27T05:36:27.764Z,6.90
2019-03-27T05:38:56.734Z,6.90
2019-03-27T05:41:26.677Z,6.90
2019-03-27T05:43:55.671Z,6.90
2019-03-27T05:46:26.562Z,7.00
2019-03-27T05:48:55.371Z,7.00
2019-03-27T05:51:24.353Z,7.00
2019-03-27T05:53:53.329Z,7.00
2019-03-27T05:56:22.318Z,7.10
2019-03-27T05:58:51.281Z,7.10
2019-03-27T06:01:20.347Z,7.00
2019-03-27T06:03:49.317Z,7.00
2019-03-27T06:06:18.337Z,7.10
2019-03-27T06:08:47.382Z,7.00
2019-03-27T06:11:16.359Z,7.00
2019-03-27T06:13:45.328Z,7.10
2019-03-27T06:16:14.315Z,7.10
2019-03-27T06:19:02.642Z,7.20
2019-03-27T06:21:31.619Z,7.30
2019-03-27T06:24:00.690Z,7.30
2019-03-27T06:26:29.669Z,7.40
2019-03-27T06:28:58.630Z,7.50
2019-03-27T06:31:27.611Z,7.50
2019-03-27T06:33:56.591Z,7.50
2019-03-27T06:36:25.566Z,7.60
2019-03-27T06:38:54.536Z,7.70
2019-03-27T06:41:23.687Z,7.80
2019-03-27T06:43:52.667Z,7.80
2019-03-27T06:46:21.730Z,7.90
2019-03-27T06:48:50.711Z,7.90
2019-03-27T06:51:19.698Z,8.00
2019-03-27T06:53:48.670Z,7.80
2019-03-27T06:56:17.628Z,7.90
2019-03-27T06:58:54.633Z,7.90
2019-03-27T07:01:17.373Z,8.00
2019-03-27T07:03:46.343Z,8.00
2019-03-27T07:06:15.318Z,8.00
2019-03-27T07:08:44.289Z,8.10
2019-03-27T07:11:13.274Z,8.20
2019-03-27T07:13:42.247Z,8.40
2019-03-27T07:16:11.209Z,8.60
2019-03-27T07:18:40.719Z,8.70
2019-03-27T07:21:09.810Z,8.80
2019-03-27T07:23:38.777Z,9.00
2019-03-27T07:26:07.914Z,9.10
2019-03-27T07:28:36.906Z,9.20
2019-03-27T07:31:05.950Z,9.50
2019-03-27T07:33:34.930Z,9.60
2019-03-27T07:36:03.991Z,9.70
2019-03-27T07:38:33.178Z,10.00
2019-03-27T07:41:02.178Z,10.20
2019-03-27T07:43:31.142Z,10.20
2019-03-27T07:46:00.216Z,10.40
2019-03-27T07:48:29.194Z,10.50
2019-03-27T07:50:58.159Z,10.60
2019-03-27T07:53:27.123Z,10.80
2019-03-27T07:55:56.124Z,10.80
2019-03-27T07:58:25.102Z,11.00
2019-03-27T08:00:54.057Z,11.10
2019-03-27T08:03:23.035Z,11.20
2019-03-27T08:05:52.083Z,11.40
2019-03-27T08:08:21.079Z,11.50
2019-03-27T08:10:50.062Z,11.70
2019-03-27T08:13:19.089Z,11.80
2019-03-27T08:15:48.086Z,11.90
2019-03-27T08:18:17.055Z,12.00
2019-03-27T08:20:46.018Z,12.00
2019-03-27T08:23:15.007Z,12.00
2019-03-27T08:25:43.966Z,12.30
2019-03-27T08:28:13.040Z,12.50
2019-03-27T08:30:42.024Z,12.90
2019-03-27T08:33:11.003Z,13.10
2019-03-27T08:35:39.962Z,13.40
2019-03-27T08:38:08.934Z,13.40
2019-03-27T08:40:37.906Z,13.30
2019-03-27T08:43:20.300Z,13.20
2019-03-27T08:45:37.562Z,13.20
2019-03-27T08:48:06.602Z,12.90
2019-03-27T08:50:35.584Z,12.80
2019-03-27T08:53:04.575Z,12.90
2019-03-27T08:55:34.242Z,13.00
2019-03-27T08:58:03.282Z,12.90
2019-03-27T09:00:49.927Z,12.90
2019-03-27T09:03:19.430Z,12.70
2019-03-27T09:05:49.136Z,12.50
2019-03-27T09:08:18.553Z,12.50
2019-03-27T09:10:47.608Z,12.50
2019-03-27T09:13:16.589Z,12.40
2019-03-27T09:15:45.638Z,12.70
2019-03-27T09:18:16.933Z,12.60
2019-03-27T09:20:45.350Z,12.50
2019-03-27T09:23:14.351Z,12.60
2019-03-27T09:25:43.469Z,12.40
2019-03-27T09:28:12.463Z,12.40
2019-03-27T09:30:41.410Z,12.30
2019-03-27T09:33:10.398Z,12.70
2019-03-27T09:35:39.442Z,12.70
2019-03-27T09:38:08.415Z,12.80
2019-03-27T09:40:37.402Z,13.20
2019-03-27T09:43:06.511Z,13.20
2019-03-27T09:45:35.479Z,13.50
2019-03-27T09:48:04.586Z,12.90
2019-03-27T09:50:33.714Z,13.00
2019-03-27T09:53:02.696Z,13.20
2019-03-27T09:55:31.675Z,12.90
2019-03-27T09:58:00.661Z,12.90
2019-03-27T10:00:47.505Z,12.70
2019-03-27T10:03:16.642Z,13.00
2019-03-27T10:05:45.610Z,12.90
2019-03-27T10:08:14.598Z,12.90
2019-03-27T10:10:43.571Z,13.10
2019-03-27T10:13:12.558Z,13.30
2019-03-27T10:15:41.533Z,13.10
2019-03-27T10:18:10.511Z,13.20
2019-03-27T10:20:39.483Z,13.10
2019-03-27T10:23:08.475Z,13.30
2019-03-27T10:25:37.438Z,13.00
2019-03-27T10:28:06.429Z,12.80
2019-03-27T10:30:35.400Z,13.10
2019-03-27T10:33:04.520Z,12.90
2019-03-27T10:35:33.495Z,13.00
2019-03-27T10:38:02.463Z,13.20
2019-03-27T10:40:31.435Z,13.50
2019-03-27T10:43:00.406Z,14.00
2019-03-27T10:45:29.363Z,14.40
2019-03-27T10:47:58.361Z,14.70
2019-03-27T10:50:27.339Z,14.50
2019-03-27T10:52:56.318Z,14.70
2019-03-27T10:55:25.295Z,13.90
2019-03-27T10:57:54.286Z,14.40
2019-03-27T11:00:23.351Z,14.70
2019-03-27T11:02:52.452Z,14.70
2019-03-27T11:05:21.430Z,14.80
2019-03-27T11:07:50.418Z,14.80
2019-03-27T11:10:20.450Z,14.70
2019-03-27T11:12:49.453Z,14.70
2019-03-27T11:15:19.642Z,14.70
2019-03-27T11:17:48.691Z,14.50
2019-03-27T11:20:29.926Z,14.70
2019-03-27T11:22:48.489Z,14.70
2019-03-27T11:25:17.451Z,14.60
2019-03-27T11:27:46.420Z,14.70
2019-03-27T11:30:15.937Z,14.70
2019-03-27T11:32:44.919Z,14.70
2019-03-27T11:35:14.055Z,14.70
2019-03-27T11:37:43.111Z,14.70
2019-03-27T11:40:12.530Z,14.70
2019-03-27T11:42:41.508Z,14.80
2019-03-27T11:45:10.706Z,14.90
2019-03-27T11:47:39.706Z,15.00
2019-03-27T11:50:09.806Z,15.10
2019-03-27T11:52:38.774Z,15.00
2019-03-27T11:55:08.179Z,14.50
2019-03-27T11:57:37.151Z,14.60
2019-03-27T12:00:10.555Z,14.50
2019-03-27T12:02:39.522Z,14.00
2019-03-27T12:05:09.834Z,14.10
2019-03-27T12:07:38.834Z,14.60
2019-03-27T12:10:09.157Z,15.10
2019-03-27T12:12:38.117Z,14.60
2019-03-27T12:15:08.950Z,14.70
2019-03-27T12:17:37.991Z,14.80
2019-03-27T12:20:07.798Z,14.30
2019-03-27T12:22:36.778Z,14.50
2019-03-27T12:25:06.910Z,14.50
2019-03-27T12:27:35.955Z,14.50
2019-03-27T12:30:07.699Z,14.80
2019-03-27T12:32:36.790Z,14.70
2019-03-27T12:35:06.209Z,14.70
2019-03-27T12:37:35.179Z,15.00
2019-03-27T12:40:11.290Z,15.30
2019-03-27T12:42:36.558Z,15.20
2019-03-27T12:45:06.995Z,15.00
2019-03-27T12:47:35.963Z,15.00
2019-03-27T12:50:08.010Z,14.90
2019-03-27T12:52:36.986Z,14.90
2019-03-27T12:55:06.722Z,14.90
2019-03-27T12:57:35.699Z,15.00
2019-03-27T13:00:07.387Z,15.10
2019-03-27T13:02:36.356Z,15.00
2019-03-27T13:05:06.799Z,15.20
2019-03-27T13:07:49.076Z,14.70
2019-03-27T13:10:06.607Z,14.90
2019-03-27T13:12:35.583Z,14.90
2019-03-27T13:15:07.480Z,15.10
2019-03-27T13:17:36.461Z,15.20
2019-03-27T13:20:09.078Z,15.30
2019-03-27T13:22:38.530Z,15.30
2019-03-27T13:25:08.335Z,15.40
2019-03-27T13:27:37.333Z,15.30
2019-03-27T13:30:08.136Z,15.30
2019-03-27T13:32:37.170Z,15.20
2019-03-27T13:35:06.896Z,15.40
2019-03-27T13:37:35.858Z,15.70
2019-03-27T13:40:09.796Z,15.90
2019-03-27T13:42:38.775Z,15.60
2019-03-27T13:45:08.864Z,15.80
2019-03-27T13:47:37.914Z,16.00
2019-03-27T13:50:13.406Z,15.90
2019-03-27T13:52:42.554Z,16.00
2019-03-27T13:55:12.177Z,15.50
2019-03-27T13:57:41.155Z,15.40
2019-03-27T14:00:12.953Z,15.00
2019-03-27T14:02:42.078Z,15.40
2019-03-27T14:05:11.637Z,14.70
2019-03-27T14:07:40.669Z,15.20
2019-03-27T14:10:10.796Z,15.10
2019-03-27T14:12:39.839Z,15.00
2019-03-27T14:15:12.545Z,14.90
2019-03-27T14:17:41.500Z,15.30
2019-03-27T14:20:11.324Z,15.50
2019-03-27T14:22:40.296Z,15.80
2019-03-27T14:25:11.128Z,15.80
2019-03-27T14:27:40.112Z,15.90
2019-03-27T14:30:12.232Z,16.00
2019-03-27T14:32:41.265Z,15.90
2019-03-27T14:35:10.796Z,16.00
2019-03-27T14:37:39.757Z,16.00
2019-03-27T14:40:09.285Z,16.00
2019-03-27T14:42:38.335Z,15.30
2019-03-27T14:45:09.067Z,15.50
2019-03-27T14:47:38.866Z,15.30
2019-03-27T14:50:08.913Z,14.80
2019-03-27T14:52:38.019Z,15.30
2019-03-27T14:55:08.449Z,15.50
2019-03-27T14:57:37.859Z,15.60
2019-03-27T15:00:10.143Z,15.60
2019-03-27T15:02:39.191Z,15.60
2019-03-27T15:05:08.961Z,15.60
2019-03-27T15:07:37.995Z,15.60
2019-03-27T15:10:08.619Z,15.50
2019-03-27T15:12:38.123Z,15.70
2019-03-27T15:15:09.266Z,15.90
2019-03-27T15:17:38.371Z,15.30
2019-03-27T15:20:08.898Z,15.50
2019-03-27T15:22:37.928Z,15.40
2019-03-27T15:25:08.921Z,15.50
2019-03-27T15:27:37.901Z,15.60
2019-03-27T15:30:12.724Z,15.60
2019-03-27T15:32:40.604Z,15.70
2019-03-27T15:35:10.146Z,15.60
2019-03-27T15:37:39.133Z,15.60
2019-03-27T15:40:09.798Z,15.60
2019-03-27T15:42:38.839Z,15.50
2019-03-27T15:45:09.180Z,15.60
2019-03-27T15:47:38.150Z,15.50
2019-03-27T15:50:07.582Z,15.50
2019-03-27T15:52:37.199Z,15.50
2019-03-27T15:55:07.074Z,15.60
2019-03-27T15:57:36.080Z,15.70
2019-03-27T16:00:09.761Z,15.70
2019-03-27T16:02:38.820Z,15.60
2019-03-27T16:05:08.021Z,15.50
2019-03-27T16:07:37.070Z,15.50
2019-03-27T16:10:07.490Z,15.40
2019-03-27T16:12:36.702Z,15.40
2019-03-27T16:15:09.074Z,15.30
2019-03-27T16:17:38.129Z,15.40
2019-03-27T16:20:07.642Z,15.20
2019-03-27T16:22:49.979Z,15.20
2019-03-27T16:25:08.018Z,15.10
2019-03-27T16:27:36.996Z,15.20
2019-03-27T16:30:07.206Z,15.20
2019-03-27T16:32:36.274Z,15.10
2019-03-27T16:35:08.429Z,15.10
2019-03-27T16:37:37.456Z,15.10
2019-03-27T16:40:07.443Z,15.00
2019-03-27T16:42:36.580Z,14.90
2019-03-27T16:45:06.731Z,14.60
2019-03-27T16:47:35.811Z,14.70
2019-03-27T16:50:08.418Z,14.70
2019-03-27T16:52:37.498Z,14.50
2019-03-27T16:55:08.016Z,14.40
2019-03-27T16:57:37.030Z,14.40
2019-03-27T17:00:07.488Z,14.50
2019-03-27T17:02:36.543Z,14.40
2019-03-27T17:05:07.461Z,14.50
2019-03-27T17:07:36.531Z,14.40
2019-03-27T17:10:07.967Z,14.40
2019-03-27T17:12:36.983Z,14.20
2019-03-27T17:15:06.911Z,14.20
2019-03-27T17:17:35.968Z,14.10
2019-03-27T17:20:10.111Z,14.10
2019-03-27T17:22:39.102Z,14.10
2019-03-27T17:25:08.823Z,13.90
2019-03-27T17:27:37.882Z,13.90
2019-03-27T17:30:09.310Z,13.80
2019-03-27T17:32:38.368Z,13.70
2019-03-27T17:35:07.483Z,13.70
2019-03-27T17:37:36.487Z,13.60
2019-03-27T17:40:06.703Z,13.50
2019-03-27T17:42:35.702Z,13.50
2019-03-27T17:45:06.924Z,13.40
2019-03-27T17:47:35.919Z,13.30
2019-03-27T17:50:06.020Z,13.30
2019-03-27T17:52:38.023Z,13.20
2019-03-27T17:55:08.130Z,13.10
2019-03-27T17:57:37.158Z,13.00
2019-03-27T18:00:12.319Z,13.00
2019-03-27T18:02:41.375Z,12.90
2019-03-27T18:05:10.607Z,12.80
2019-03-27T18:07:39.600Z,12.70
2019-03-27T18:10:09.399Z,12.70
2019-03-27T18:12:38.391Z,12.60
2019-03-27T18:15:08.604Z,12.50
2019-03-27T18:17:37.731Z,12.40
2019-03-27T18:20:07.147Z,12.40
2019-03-27T18:22:36.160Z,12.30
2019-03-27T18:25:07.184Z,12.20
2019-03-27T18:27:36.270Z,12.10
2019-03-27T18:30:07.451Z,12.10
2019-03-27T18:32:36.505Z,12.00
2019-03-27T18:35:06.627Z,12.00
2019-03-27T18:37:35.637Z,11.90
2019-03-27T18:40:06.950Z,11.90
2019-03-27T18:42:36.023Z,11.80
2019-03-27T18:45:06.930Z,11.70
2019-03-27T18:47:35.929Z,11.70
2019-03-27T18:50:07.012Z,11.60
2019-03-27T18:52:36.071Z,11.50
2019-03-27T18:55:06.787Z,11.50
2019-03-27T18:57:35.849Z,11.40
2019-03-27T19:00:09.371Z,11.30
2019-03-27T19:02:38.360Z,11.30
2019-03-27T19:05:07.981Z,11.30
2019-03-27T19:07:36.983Z,11.30
2019-03-27T19:10:06.884Z,11.30
2019-03-27T19:12:35.888Z,11.20
2019-03-27T19:15:06.820Z,11.20
2019-03-27T19:17:35.895Z,11.20
2019-03-27T19:20:08.802Z,11.20
2019-03-27T19:22:37.933Z,11.10
2019-03-27T19:25:08.462Z,11.10
2019-03-27T19:27:37.559Z,11.00
2019-03-27T19:30:08.890Z,11.00
2019-03-27T19:32:38.035Z,11.00
2019-03-27T19:35:07.307Z,11.00
2019-03-27T19:37:36.411Z,10.90
2019-03-27T19:40:06.119Z,10.90
2019-03-27T19:42:35.258Z,10.80
2019-03-27T19:45:05.332Z,10.80
2019-03-27T19:47:34.439Z,10.80
2019-03-27T19:50:05.170Z,10.80
2019-03-27T19:52:34.194Z,10.70
2019-03-27T19:55:03.537Z,10.70
2019-03-27T19:57:32.514Z,10.60
2019-03-27T20:00:01.506Z,10.60
2019-03-27T20:02:30.470Z,10.60
2019-03-27T20:04:59.478Z,10.50
2019-03-27T20:07:35.806Z,10.50
2019-03-27T20:09:59.243Z,10.40
2019-03-27T20:12:28.432Z,10.40
2019-03-27T20:15:10.865Z,10.40
2019-03-27T20:17:28.359Z,10.40
2019-03-27T20:19:57.358Z,10.40
2019-03-27T20:22:26.371Z,10.30
2019-03-27T20:24:55.364Z,10.20
2019-03-27T20:27:24.332Z,10.20
2019-03-27T20:29:53.314Z,10.20
2019-03-27T20:32:22.371Z,10.20
2019-03-27T20:34:51.679Z,10.20
2019-03-27T20:37:20.775Z,10.20
2019-03-27T20:39:49.782Z,10.20
2019-03-27T20:42:18.764Z,10.20
2019-03-27T20:44:47.788Z,10.20
2019-03-27T20:47:17.023Z,10.20
2019-03-27T20:49:46.066Z,10.20
2019-03-27T20:52:15.049Z,10.20
2019-03-27T20:54:54.440Z,10.20
2019-03-27T20:57:14.758Z,10.10
2019-03-27T20:59:43.736Z,10.10
2019-03-27T21:02:12.715Z,10.00
2019-03-27T21:04:41.697Z,10.00
2019-03-27T21:07:10.675Z,10.00
2019-03-27T21:09:39.833Z,10.00
2019-03-27T21:12:08.946Z,9.80
2019-03-27T21:14:38.007Z,9.90
2019-03-27T21:17:06.985Z,9.90
2019-03-27T21:19:36.354Z,9.80
2019-03-27T21:22:05.583Z,9.80
2019-03-27T21:24:34.570Z,9.80
2019-03-27T21:27:03.579Z,9.90
2019-03-27T21:29:32.638Z,9.90
2019-03-27T21:32:01.681Z,9.80
2019-03-27T21:34:30.642Z,9.80
2019-03-27T21:36:59.687Z,9.70
2019-03-27T21:39:28.675Z,9.70
2019-03-27T21:41:57.648Z,9.60
2019-03-27T21:44:26.633Z,9.60
2019-03-27T21:46:55.602Z,9.60
2019-03-27T21:49:24.583Z,9.60
2019-03-27T21:51:53.555Z,9.70
2019-03-27T21:54:22.638Z,9.70
2019-03-27T21:56:51.610Z,9.70
2019-03-27T21:59:20.671Z,9.60
2019-03-27T22:01:49.638Z,9.70
2019-03-27T22:04:18.699Z,9.70
2019-03-27T22:06:47.855Z,9.70
2019-03-27T22:09:16.858Z,9.60
2019-03-27T22:11:45.850Z,9.60
2019-03-27T22:14:14.973Z,9.70
2019-03-27T22:16:43.943Z,9.70
2019-03-27T22:19:13.103Z,9.70
2019-03-27T22:21:42.068Z,9.70
2019-03-27T22:24:11.142Z,9.70
2019-03-27T22:26:40.105Z,9.70
2019-03-27T22:29:09.116Z,9.70
2019-03-27T22:31:38.067Z,9.60
2019-03-27T22:34:07.055Z,9.50
2019-03-27T22:36:36.034Z,9.60
2019-03-27T22:39:07.841Z,9.50
2019-03-27T22:41:36.899Z,9.50
2019-03-27T22:44:05.922Z,9.50
2019-03-27T22:46:34.894Z,9.60
2019-03-27T22:49:03.914Z,9.40
2019-03-27T22:51:32.898Z,9.40
2019-03-27T22:54:01.950Z,9.50
2019-03-27T22:56:30.937Z,9.50
2019-03-27T22:58:59.902Z,9.50
2019-03-27T23:01:32.010Z,9.50
2019-03-27T23:04:00.994Z,9.50
2019-03-27T23:06:30.207Z,9.50
2019-03-27T23:08:59.170Z,9.50
2019-03-27T23:11:28.237Z,9.40
2019-03-27T23:13:57.280Z,9.30
2019-03-27T23:16:26.371Z,9.40
2019-03-27T23:18:55.339Z,9.40
2019-03-27T23:21:24.340Z,9.40
2019-03-27T23:23:53.310Z,9.40
2019-03-27T23:26:22.351Z,9.30
2019-03-27T23:28:51.323Z,9.20
2019-03-27T23:31:20.301Z,9.20
2019-03-27T23:33:49.277Z,9.20
2019-03-27T23:36:18.315Z,9.20
2019-03-27T23:38:47.299Z,9.20
2019-03-27T23:41:16.290Z,9.10
2019-03-27T23:43:45.255Z,9.10
2019-03-27T23:46:14.294Z,9.20
2019-03-27T23:48:43.275Z,9.10
2019-03-27T23:51:12.286Z,9.00
2019-03-27T23:53:41.272Z,9.00
2019-03-27T23:56:16.620Z,8.90
2019-03-27T23:58:40.939Z,8.90
